METAR Data

Data at: 2201 UTC 01 Dec 2021

METAR for:KTAN (Taunton Muni, MA, US)
Text:KTAN 012152Z AUTO 00000KT 10SM CLR 02/M03 A3012 RMK AO2 SLP200 T00171028
Temperature: 1.7°C ( 35°F)
Dewpoint: -2.8°C ( 27°F) [RH = 72%]
Pressure (altimeter):30.12 inches Hg (1020.1 mb) [Sea level pressure: 1020.0 mb]
Winds:calm
Visibility:10 or more sm (16+ km)
Ceiling:at least 12,000 feet AGL
Clouds:sky clear below 12,000 feet AGL
QC Flag:automated observation with no human augmentation